createdAt,value
2023-02-12T00:01:19.530Z,-0.54
2023-02-12T00:03:48.123Z,-0.54
2023-02-12T00:06:16.421Z,-0.46
2023-02-12T00:08:44.848Z,-0.43
2023-02-12T00:11:16.267Z,-0.31
2023-02-12T00:13:44.701Z,-0.30
2023-02-12T00:16:16.230Z,-0.31
2023-02-12T00:18:44.934Z,-0.30
2023-02-12T00:21:14.223Z,-0.32
2023-02-12T00:23:42.567Z,-0.37
2023-02-12T00:26:13.107Z,-0.48
2023-02-12T00:28:43.479Z,-0.46
2023-02-12T00:31:15.176Z,-0.54
2023-02-12T00:33:44.232Z,-0.52
2023-02-12T00:36:16.189Z,-0.52
2023-02-12T00:38:45.039Z,-0.51
2023-02-12T00:41:13.847Z,-0.56
2023-02-12T00:43:43.674Z,-0.59
2023-02-12T00:46:12.734Z,-0.54
2023-02-12T00:48:41.107Z,-0.61
2023-02-12T00:51:09.746Z,-0.77
2023-02-12T00:53:38.157Z,-0.83
2023-02-12T00:56:06.899Z,-0.90
2023-02-12T00:58:35.248Z,-0.85
2023-02-12T01:01:05.049Z,-0.96
2023-02-12T01:03:33.193Z,-1.01
2023-02-12T01:06:01.939Z,-1.10
2023-02-12T01:08:30.308Z,-1.07
2023-02-12T01:11:01.673Z,-1.34
2023-02-12T01:13:31.746Z,-1.33
2023-02-12T01:16:09.484Z,-1.33
2023-02-12T01:18:39.133Z,-1.40
2023-02-12T01:21:11.811Z,-1.38
2023-02-12T01:23:40.341Z,-1.46
2023-02-12T01:26:10.915Z,-1.46
2023-02-12T01:28:39.720Z,-1.49
2023-02-12T01:31:15.007Z,-1.50
2023-02-12T01:33:44.071Z,-1.51
2023-02-12T01:36:12.949Z,-1.53
2023-02-12T01:38:41.221Z,-1.62
2023-02-12T01:41:11.876Z,-1.55
2023-02-12T01:43:40.438Z,-1.64
2023-02-12T01:46:10.966Z,-1.82
2023-02-12T01:48:46.529Z,-1.79
2023-02-12T01:51:20.654Z,-1.88
2023-02-12T01:53:52.219Z,-1.88
2023-02-12T01:56:20.809Z,-1.81
2023-02-12T01:58:53.196Z,-1.73
2023-02-12T02:01:24.219Z,-1.64
2023-02-12T02:03:57.004Z,-1.54
2023-02-12T02:06:29.546Z,-1.68
2023-02-12T02:08:58.264Z,-1.67
2023-02-12T02:11:44.009Z,-1.69
2023-02-12T02:14:29.672Z,-1.80
2023-02-12T02:17:09.085Z,-1.93
2023-02-12T02:20:05.650Z,-1.92
2023-02-12T02:22:40.194Z,-1.93
2023-02-12T02:25:51.613Z,-1.94
2023-02-12T02:28:48.156Z,-1.94
2023-02-12T02:31:22.299Z,-2.14
2023-02-12T02:33:58.774Z,-2.19
2023-02-12T02:36:35.921Z,-2.24
2023-02-12T02:39:08.075Z,-2.13
2023-02-12T02:41:44.244Z,-2.23
2023-02-12T02:44:17.370Z,-2.24
2023-02-12T02:46:50.149Z,-2.19
2023-02-12T02:49:24.535Z,-2.20
2023-02-12T02:51:57.509Z,-2.10
2023-02-12T02:54:32.678Z,-2.09
2023-02-12T02:57:06.836Z,-2.05
2023-02-12T02:59:39.330Z,-1.91
2023-02-12T03:02:14.639Z,-1.84
2023-02-12T03:04:46.948Z,-1.85
2023-02-12T03:07:20.036Z,-1.80
2023-02-12T03:09:51.966Z,-1.79
2023-02-12T03:12:25.519Z,-1.84
2023-02-12T03:14:57.983Z,-1.98
2023-02-12T03:17:32.610Z,-2.15
2023-02-12T03:20:06.254Z,-2.19
2023-02-12T03:22:37.940Z,-2.21
2023-02-12T03:25:12.270Z,-2.20
2023-02-12T03:27:43.926Z,-2.17
2023-02-12T03:30:13.298Z,-2.14
2023-02-12T03:32:54.962Z,-2.08
2023-02-12T03:35:26.531Z,-1.99
2023-02-12T03:37:59.652Z,-1.93
2023-02-12T03:40:34.255Z,-1.69
2023-02-12T03:43:06.955Z,-1.51
2023-02-12T03:45:51.490Z,-1.39
2023-02-12T03:48:27.453Z,-1.29
2023-02-12T03:51:00.610Z,-1.19
2023-02-12T03:53:30.020Z,-1.08
2023-02-12T03:56:04.698Z,-1.11
2023-02-12T03:58:36.619Z,-1.20
2023-02-12T04:01:05.785Z,-1.23
2023-02-12T04:03:36.052Z,-1.23
2023-02-12T04:06:04.408Z,-1.15
2023-02-12T04:08:34.017Z,-1.16
2023-02-12T04:11:14.250Z,-1.03
2023-02-12T04:13:47.404Z,-0.95
2023-02-12T04:16:23.902Z,-1.09
2023-02-12T04:18:54.940Z,-1.07
2023-02-12T04:21:44.667Z,-1.03
2023-02-12T04:24:20.928Z,-1.07
2023-02-12T04:26:55.785Z,-1.07
2023-02-12T04:29:30.341Z,-1.04
2023-02-12T04:32:09.030Z,-1.03
2023-02-12T04:34:46.483Z,-1.11
2023-02-12T04:37:19.175Z,-1.14
2023-02-12T04:39:49.140Z,-1.16
2023-02-12T04:42:17.991Z,-1.15
2023-02-12T04:44:46.363Z,-0.99
2023-02-12T04:47:16.149Z,-0.98
2023-02-12T04:49:45.843Z,-0.91
2023-02-12T04:52:14.026Z,-0.82
2023-02-12T04:54:42.135Z,-0.88
2023-02-12T04:57:10.857Z,-0.81
2023-02-12T04:59:39.076Z,-0.85
2023-02-12T05:02:07.209Z,-0.79
2023-02-12T05:04:35.283Z,-0.69
2023-02-12T05:07:04.808Z,-0.62
2023-02-12T05:09:32.944Z,-0.70
2023-02-12T05:12:01.050Z,-0.63
2023-02-12T05:14:29.797Z,-0.61
2023-02-12T05:16:58.049Z,-0.63
2023-02-12T05:19:26.214Z,-0.64
2023-02-12T05:21:54.373Z,-0.63
2023-02-12T05:24:23.961Z,-0.66
2023-02-12T05:26:52.237Z,-0.75
2023-02-12T05:29:22.839Z,-0.66
2023-02-12T05:31:51.199Z,-0.62
2023-02-12T05:34:20.308Z,-0.67
2023-02-12T05:36:48.405Z,-0.62
2023-02-12T05:39:16.835Z,-0.65
2023-02-12T05:41:46.654Z,-0.59
2023-02-12T05:44:15.283Z,-0.58
2023-02-12T05:46:43.962Z,-0.69
2023-02-12T05:49:12.591Z,-0.61
2023-02-12T05:51:40.764Z,-0.41
2023-02-12T05:54:09.296Z,-0.33
2023-02-12T05:56:39.709Z,-0.22
2023-02-12T05:59:16.678Z,-0.08
2023-02-12T06:01:46.373Z,-0.06
2023-02-12T06:04:17.217Z,-0.01
2023-02-12T06:06:45.698Z,0.11
2023-02-12T06:09:15.474Z,0.15
2023-02-12T06:11:44.368Z,0.21
2023-02-12T06:14:16.702Z,0.38
2023-02-12T06:16:46.843Z,0.52
2023-02-12T06:19:15.190Z,0.55
2023-02-12T06:21:44.083Z,0.65
2023-02-12T06:24:13.886Z,0.74
2023-02-12T06:26:43.792Z,0.83
2023-02-12T06:29:14.449Z,0.82
2023-02-12T06:31:44.884Z,1.00
2023-02-12T06:34:14.840Z,1.17
2023-02-12T06:36:45.693Z,1.20
2023-02-12T06:39:15.803Z,1.29
2023-02-12T06:41:44.827Z,1.34
2023-02-12T06:44:14.895Z,1.33
2023-02-12T06:46:43.195Z,1.49
2023-02-12T06:49:14.321Z,1.62
2023-02-12T06:51:43.393Z,1.67
2023-02-12T06:54:15.387Z,1.76
2023-02-12T06:56:44.179Z,1.64
2023-02-12T06:59:19.952Z,1.67
2023-02-12T07:01:50.746Z,1.85
2023-02-12T07:04:18.981Z,2.05
2023-02-12T07:06:47.366Z,2.19
2023-02-12T07:09:15.593Z,2.15
2023-02-12T07:11:43.860Z,2.16
2023-02-12T07:14:16.675Z,2.23
2023-02-12T07:16:44.968Z,2.15
2023-02-12T07:19:16.794Z,2.13
2023-02-12T07:21:45.158Z,2.35
2023-02-12T07:24:15.108Z,2.38
2023-02-12T07:26:43.756Z,2.35
2023-02-12T07:29:12.781Z,2.38
2023-02-12T07:31:42.990Z,2.40
2023-02-12T07:34:12.368Z,2.53
2023-02-12T07:36:40.617Z,2.42
2023-02-12T07:39:08.954Z,2.41
2023-02-12T07:41:38.220Z,2.58
2023-02-12T07:44:10.382Z,2.66
2023-02-12T07:46:41.181Z,2.79
2023-02-12T07:49:17.142Z,2.90
2023-02-12T07:51:45.729Z,3.00
2023-02-12T07:54:15.712Z,3.23
2023-02-12T07:56:47.202Z,3.20
2023-02-12T07:59:17.638Z,3.28
2023-02-12T08:01:48.908Z,3.30
2023-02-12T08:04:25.129Z,3.42
2023-02-12T08:06:55.260Z,3.50
2023-02-12T08:09:25.328Z,3.43
2023-02-12T08:11:53.662Z,3.61
2023-02-12T08:14:23.659Z,3.66
2023-02-12T08:16:52.865Z,3.66
2023-02-12T08:19:26.330Z,3.66
2023-02-12T08:21:57.017Z,3.50
2023-02-12T08:24:25.402Z,3.63
2023-02-12T08:26:53.728Z,3.64
2023-02-12T08:29:25.299Z,3.46
2023-02-12T08:31:58.210Z,3.45
2023-02-12T08:34:29.634Z,3.41
2023-02-12T08:36:59.201Z,3.70
2023-02-12T08:39:29.713Z,3.69
2023-02-12T08:41:59.008Z,3.85
2023-02-12T08:44:27.418Z,3.80
2023-02-12T08:46:56.795Z,3.98
2023-02-12T08:49:28.692Z,4.02
2023-02-12T08:52:02.540Z,4.13
2023-02-12T08:54:32.898Z,4.48
2023-02-12T08:57:04.165Z,4.79
2023-02-12T08:59:32.924Z,4.79
2023-02-12T09:02:02.270Z,4.78
2023-02-12T09:04:32.235Z,5.07
2023-02-12T09:07:00.735Z,5.23
2023-02-12T09:09:28.983Z,5.32
2023-02-12T09:11:57.272Z,5.05
2023-02-12T09:14:25.531Z,5.10
2023-02-12T09:16:54.829Z,5.12
2023-02-12T09:19:24.520Z,5.22
2023-02-12T09:21:56.477Z,5.07
2023-02-12T09:24:25.304Z,4.93
2023-02-12T09:26:53.657Z,4.68
2023-02-12T09:29:22.002Z,4.57
2023-02-12T09:31:50.294Z,4.51
2023-02-12T09:34:25.162Z,4.77
2023-02-12T09:36:54.739Z,4.85
2023-02-12T09:39:22.801Z,4.82
2023-02-12T09:42:22.333Z,4.89
2023-02-12T09:44:59.849Z,4.84
2023-02-12T09:47:35.330Z,4.54
2023-02-12T09:50:19.116Z,4.41
2023-02-12T09:52:52.081Z,4.58
2023-02-12T09:55:21.408Z,4.48
2023-02-12T09:57:49.806Z,4.24
2023-02-12T10:00:23.943Z,4.18
2023-02-12T10:02:54.537Z,4.27
2023-02-12T10:05:28.644Z,4.28
2023-02-12T10:08:14.750Z,4.18
2023-02-12T10:10:52.967Z,4.16
2023-02-12T10:13:36.336Z,4.10
2023-02-12T10:16:15.848Z,3.99
2023-02-12T10:19:07.422Z,4.17
2023-02-12T10:21:46.181Z,4.15
2023-02-12T10:24:28.864Z,4.05
2023-02-12T10:27:01.137Z,4.19
2023-02-12T10:29:33.047Z,4.32
2023-02-12T10:32:06.209Z,4.41
2023-02-12T10:34:37.481Z,4.52
2023-02-12T10:37:12.981Z,4.62
2023-02-12T10:39:48.736Z,4.65
2023-02-12T10:42:21.121Z,4.75
2023-02-12T10:44:49.473Z,4.84
2023-02-12T10:47:20.873Z,4.72
2023-02-12T10:49:52.552Z,4.70
2023-02-12T10:52:35.690Z,4.51
2023-02-12T10:55:26.283Z,4.59
2023-02-12T10:57:55.349Z,4.52
2023-02-12T11:00:30.384Z,4.49
2023-02-12T11:03:21.565Z,4.43
2023-02-12T11:05:50.682Z,4.34
2023-02-12T11:08:32.943Z,4.20
2023-02-12T11:11:09.508Z,4.44
2023-02-12T11:13:38.873Z,4.59
2023-02-12T11:16:08.098Z,4.58
2023-02-12T11:18:37.451Z,4.69
2023-02-12T11:21:08.435Z,4.58
2023-02-12T11:23:38.861Z,4.72
2023-02-12T11:26:23.758Z,4.82
2023-02-12T11:28:57.952Z,4.93
2023-02-12T11:31:28.549Z,5.06
2023-02-12T11:34:15.855Z,4.97
2023-02-12T11:36:46.451Z,4.87
2023-02-12T11:39:28.339Z,4.94
2023-02-12T11:42:00.360Z,5.01
2023-02-12T11:44:32.057Z,5.10
2023-02-12T11:47:07.510Z,5.06
2023-02-12T11:49:44.219Z,5.01
2023-02-12T11:52:25.237Z,4.94
2023-02-12T11:54:56.709Z,5.10
2023-02-12T11:57:40.350Z,5.01
2023-02-12T12:00:18.545Z,4.96
2023-02-12T12:02:52.630Z,4.97
2023-02-12T12:05:22.879Z,4.78
2023-02-12T12:07:56.028Z,4.76
2023-02-12T12:10:35.457Z,4.57
2023-02-12T12:13:12.288Z,4.44
2023-02-12T12:16:04.171Z,4.40
2023-02-12T12:18:56.524Z,4.34
2023-02-12T12:21:32.224Z,4.24
2023-02-12T12:24:04.229Z,4.39
2023-02-12T12:26:35.336Z,4.52
2023-02-12T12:29:12.001Z,4.50
2023-02-12T12:31:44.094Z,4.25
2023-02-12T12:34:17.268Z,4.25
2023-02-12T12:37:24.004Z,4.32
2023-02-12T12:40:14.189Z,4.28
2023-02-12T12:43:04.906Z,4.17
2023-02-12T12:46:01.176Z,4.00
2023-02-12T12:48:45.110Z,4.00
2023-02-12T12:51:34.615Z,3.84
2023-02-12T12:54:19.270Z,3.79
2023-02-12T12:56:58.160Z,3.64
2023-02-12T12:59:57.074Z,3.62
2023-02-12T13:02:53.493Z,3.61
2023-02-12T13:05:57.922Z,3.58
2023-02-12T13:08:59.871Z,3.59
2023-02-12T13:11:40.361Z,3.65
2023-02-12T13:14:28.954Z,3.63
2023-02-12T13:17:07.671Z,3.58
2023-02-12T13:19:48.501Z,3.59
2023-02-12T13:22:25.288Z,3.69
2023-02-12T13:25:03.845Z,3.70
2023-02-12T13:27:36.598Z,3.59
2023-02-12T13:30:08.828Z,3.66
2023-02-12T13:32:43.522Z,3.66
2023-02-12T13:35:20.409Z,3.50
2023-02-12T13:37:52.418Z,3.40
2023-02-12T13:40:22.337Z,3.40
2023-02-12T13:42:57.044Z,3.43
2023-02-12T13:45:37.618Z,3.34
2023-02-12T13:48:22.131Z,3.37
2023-02-12T13:51:02.893Z,3.35
2023-02-12T13:53:43.493Z,3.37
2023-02-12T13:56:25.493Z,3.37
2023-02-12T13:59:00.407Z,3.26
2023-02-12T14:01:47.623Z,3.36
2023-02-12T14:04:28.774Z,3.29
2023-02-12T14:07:01.754Z,3.23
2023-02-12T14:09:37.994Z,3.28
2023-02-12T14:12:11.214Z,3.24
2023-02-12T14:14:42.743Z,3.32
2023-02-12T14:17:43.241Z,3.24
2023-02-12T14:20:26.462Z,3.08
2023-02-12T14:23:32.483Z,3.21
2023-02-12T14:26:08.040Z,3.05
2023-02-12T14:28:53.647Z,2.99
2023-02-12T14:31:36.685Z,2.87
2023-02-12T14:34:40.000Z,2.84
2023-02-12T14:37:16.397Z,2.62
2023-02-12T14:39:46.586Z,2.76
2023-02-12T14:42:56.902Z,2.79
2023-02-12T14:45:30.928Z,2.84
2023-02-12T14:47:59.563Z,2.90
2023-02-12T14:50:37.731Z,2.83
2023-02-12T14:53:16.406Z,2.75
2023-02-12T14:55:48.560Z,2.73
2023-02-12T14:58:20.234Z,2.70
2023-02-12T15:00:51.153Z,2.63
2023-02-12T15:03:25.350Z,2.66
2023-02-12T15:06:02.349Z,2.64
2023-02-12T15:08:38.149Z,2.52
2023-02-12T15:11:18.496Z,2.56
2023-02-12T15:13:55.132Z,2.65
2023-02-12T15:16:36.312Z,2.55
2023-02-12T15:19:19.697Z,2.55
2023-02-12T15:21:49.166Z,2.56
2023-02-12T15:24:24.251Z,2.53
2023-02-12T15:26:57.342Z,2.51
2023-02-12T15:29:28.916Z,2.38
2023-02-12T15:31:59.917Z,2.29
2023-02-12T15:34:31.975Z,2.27
2023-02-12T15:37:02.452Z,2.30
2023-02-12T15:39:41.098Z,2.24
2023-02-12T15:42:30.153Z,2.21
2023-02-12T15:45:23.638Z,2.22
2023-02-12T15:48:13.473Z,2.23
2023-02-12T15:50:52.818Z,2.30
2023-02-12T15:53:24.292Z,2.26
2023-02-12T15:55:53.124Z,2.26
2023-02-12T15:58:29.360Z,2.19
2023-02-12T16:01:03.521Z,2.17
2023-02-12T16:03:33.728Z,2.14
2023-02-12T16:06:05.841Z,2.04
2023-02-12T16:08:36.774Z,1.95
2023-02-12T16:11:14.100Z,1.93
2023-02-12T16:13:47.119Z,1.94
2023-02-12T16:16:23.294Z,1.85
2023-02-12T16:19:08.769Z,1.83
2023-02-12T16:21:39.879Z,1.79
2023-02-12T16:24:23.067Z,1.79
2023-02-12T16:26:51.837Z,1.86
2023-02-12T16:29:22.000Z,1.90
2023-02-12T16:32:02.210Z,1.87
2023-02-12T16:34:37.610Z,1.84
2023-02-12T16:37:44.595Z,1.83
2023-02-12T16:40:26.720Z,1.84
2023-02-12T16:43:04.505Z,1.80
2023-02-12T16:45:45.105Z,1.70
2023-02-12T16:48:20.775Z,1.73
2023-02-12T16:50:52.345Z,1.74
2023-02-12T16:53:47.187Z,1.62
2023-02-12T16:56:18.352Z,1.61
2023-02-12T16:58:48.477Z,1.74
2023-02-12T17:01:24.660Z,1.66
2023-02-12T17:03:54.197Z,1.74
2023-02-12T17:06:24.678Z,1.80
2023-02-12T17:08:55.073Z,1.74
2023-02-12T17:11:24.692Z,1.70
2023-02-12T17:13:54.565Z,1.69
2023-02-12T17:16:30.766Z,1.70
2023-02-12T17:19:00.262Z,1.72
2023-02-12T17:21:31.528Z,1.62
2023-02-12T17:24:00.028Z,1.65
2023-02-12T17:26:28.447Z,1.61
2023-02-12T17:29:05.354Z,1.53
2023-02-12T17:31:36.754Z,1.62
2023-02-12T17:34:05.965Z,1.62
2023-02-12T17:36:34.672Z,1.64
2023-02-12T17:39:05.572Z,1.59
2023-02-12T17:41:33.932Z,1.62
2023-02-12T17:44:02.253Z,1.59
2023-02-12T17:46:31.488Z,1.55
2023-02-12T17:49:01.153Z,1.42
2023-02-12T17:51:29.367Z,1.50
2023-02-12T17:53:57.742Z,1.44
2023-02-12T17:56:25.910Z,1.56
2023-02-12T17:58:54.327Z,1.54
2023-02-12T18:01:24.062Z,1.53
2023-02-12T18:03:54.536Z,1.56
2023-02-12T18:06:27.666Z,1.43
2023-02-12T18:08:57.232Z,1.52
2023-02-12T18:11:26.273Z,1.66
2023-02-12T18:13:55.968Z,1.65
2023-02-12T18:16:25.619Z,1.70
2023-02-12T18:18:53.881Z,1.75
2023-02-12T18:21:22.369Z,1.66
2023-02-12T18:23:53.888Z,1.62
2023-02-12T18:26:22.935Z,1.52
2023-02-12T18:28:51.415Z,1.48
2023-02-12T18:31:21.325Z,1.39
2023-02-12T18:33:49.555Z,1.35
2023-02-12T18:36:19.559Z,1.17
2023-02-12T18:38:50.381Z,1.07
2023-02-12T18:41:21.885Z,1.14
2023-02-12T18:43:50.511Z,1.18
2023-02-12T18:46:22.208Z,1.11
2023-02-12T18:48:50.954Z,1.08
2023-02-12T18:51:22.400Z,0.87
2023-02-12T18:53:55.375Z,0.95
2023-02-12T18:56:25.285Z,0.93
2023-02-12T18:58:57.609Z,0.84
2023-02-12T19:01:26.591Z,0.75
2023-02-12T19:03:55.708Z,0.70
2023-02-12T19:06:24.178Z,0.61
2023-02-12T19:08:56.283Z,0.57
2023-02-12T19:11:26.331Z,0.52
2023-02-12T19:13:54.794Z,0.49
2023-02-12T19:16:24.638Z,0.49
2023-02-12T19:18:54.893Z,0.42
2023-02-12T19:21:26.171Z,0.57
2023-02-12T19:23:55.325Z,0.55
2023-02-12T19:26:23.881Z,0.45
2023-02-12T19:28:53.479Z,0.48
2023-02-12T19:31:24.292Z,0.40
2023-02-12T19:33:57.208Z,0.41
2023-02-12T19:36:26.355Z,0.44
2023-02-12T19:38:54.757Z,0.42
2023-02-12T19:41:25.049Z,0.55
2023-02-12T19:43:58.337Z,0.60
2023-02-12T19:46:27.920Z,0.62
2023-02-12T19:48:58.239Z,0.59
2023-02-12T19:51:27.801Z,0.61
2023-02-12T19:53:56.506Z,0.64
2023-02-12T19:56:24.621Z,0.70
2023-02-12T19:58:53.019Z,0.66
2023-02-12T20:01:22.803Z,0.64
2023-02-12T20:03:51.274Z,0.66
2023-02-12T20:06:22.002Z,0.60
2023-02-12T20:08:50.826Z,0.55
2023-02-12T20:11:20.967Z,0.58
2023-02-12T20:13:49.134Z,0.46
2023-02-12T20:16:20.020Z,0.49
2023-02-12T20:18:52.176Z,0.50
2023-02-12T20:21:22.053Z,0.53
2023-02-12T20:23:50.302Z,0.53
2023-02-12T20:26:20.617Z,0.48
2023-02-12T20:28:49.610Z,0.58
2023-02-12T20:31:19.562Z,0.56
2023-02-12T20:33:54.055Z,0.54
2023-02-12T20:36:22.277Z,0.61
2023-02-12T20:39:00.245Z,0.53
2023-02-12T20:41:30.331Z,0.57
2023-02-12T20:44:01.285Z,0.64
2023-02-12T20:46:29.654Z,0.60
2023-02-12T20:48:59.360Z,0.62
2023-02-12T20:51:29.108Z,0.57
2023-02-12T20:53:57.363Z,0.58
2023-02-12T20:56:27.373Z,0.48
2023-02-12T20:58:55.617Z,0.44
2023-02-12T21:01:26.058Z,0.55
2023-02-12T21:03:56.223Z,0.56
2023-02-12T21:06:26.196Z,0.49
2023-02-12T21:08:54.364Z,0.46
2023-02-12T21:11:25.862Z,0.34
2023-02-12T21:14:18.571Z,0.42
2023-02-12T21:16:45.591Z,0.31
2023-02-12T21:19:14.175Z,0.33
2023-02-12T21:21:45.530Z,0.29
2023-02-12T21:24:16.335Z,0.23
2023-02-12T21:26:44.584Z,0.18
2023-02-12T21:29:13.064Z,0.12
2023-02-12T21:31:43.209Z,0.08
2023-02-12T21:34:15.584Z,0.07
2023-02-12T21:36:47.181Z,0.04
2023-02-12T21:39:24.506Z,0.05
2023-02-12T21:41:54.523Z,0.00
2023-02-12T21:44:24.275Z,0.00
2023-02-12T21:46:52.727Z,-0.04
2023-02-12T21:49:25.052Z,-0.13
2023-02-12T21:51:56.129Z,-0.17
2023-02-12T21:54:24.464Z,-0.23
2023-02-12T21:56:52.878Z,-0.24
2023-02-12T21:59:21.098Z,-0.27
2023-02-12T22:01:50.534Z,-0.18
2023-02-12T22:04:19.677Z,-0.24
2023-02-12T22:06:49.443Z,-0.36
2023-02-12T22:09:23.280Z,-0.42
2023-02-12T22:11:53.099Z,-0.48
2023-02-12T22:14:22.480Z,-0.54
2023-02-12T22:16:51.097Z,-0.49
2023-02-12T22:19:19.286Z,-0.52
2023-02-12T22:21:47.434Z,-0.55
2023-02-12T22:24:18.820Z,-0.51
2023-02-12T22:26:47.399Z,-0.63
2023-02-12T22:29:17.098Z,-0.67
2023-02-12T22:31:47.143Z,-0.67
2023-02-12T22:34:17.697Z,-0.63
2023-02-12T22:36:47.017Z,-0.58
2023-02-12T22:39:17.635Z,-0.50
2023-02-12T22:41:47.627Z,-0.47
2023-02-12T22:44:18.853Z,-0.47
2023-02-12T22:46:48.065Z,-0.41
2023-02-12T22:49:17.856Z,-0.47
2023-02-12T22:51:46.075Z,-0.55
2023-02-12T22:54:15.848Z,-0.50
2023-02-12T22:56:44.413Z,-0.50
2023-02-12T22:59:14.428Z,-0.58
2023-02-12T23:01:42.936Z,-0.57
2023-02-12T23:04:16.297Z,-0.51
2023-02-12T23:06:44.964Z,-0.55
2023-02-12T23:09:15.377Z,-0.61
2023-02-12T23:11:43.832Z,-0.58
2023-02-12T23:14:13.591Z,-0.61
2023-02-12T23:16:41.864Z,-0.61
2023-02-12T23:19:12.039Z,-0.59
2023-02-12T23:21:40.548Z,-0.56
2023-02-12T23:24:08.938Z,-0.57
2023-02-12T23:26:37.213Z,-0.54
2023-02-12T23:29:05.569Z,-0.61
2023-02-12T23:31:35.164Z,-0.63
2023-02-12T23:34:03.326Z,-0.67
2023-02-12T23:36:31.540Z,-0.64
2023-02-12T23:39:00.149Z,-0.61
2023-02-12T23:41:28.306Z,-0.66
2023-02-12T23:43:56.373Z,-0.71
2023-02-12T23:46:24.530Z,-0.78
2023-02-12T23:48:54.133Z,-0.84
2023-02-12T23:51:22.248Z,-0.90
2023-02-12T23:53:50.402Z,-0.97
2023-02-12T23:56:18.537Z,-0.98
2023-02-12T23:58:46.850Z,-1.00
